Terminal Aerodrome Forecast
Issued by NWS Portland, ME

Home | Current Version | Previous Version | Text Only | Print | Product List | Glossary On
Versions: 1 2 3 4 5 6 7 8 9 10 11 12 13 14 15
000
FTUS41 KGYX 301120
TAFPWM
TAF
KPWM 301120Z 3012/0112 03004KT 5SM -DZ BR OVC005
     FM301300 05006KT P6SM OVC008
     FM301500 05006KT P6SM OVC015
     FM010000 04003KT 3SM BR OVC005
     FM010200 01003KT 1 1/2SM BR OVC003=

USA.gov is the U.S. government's official web portal to all federal, state and local government web resources and services.